createdAt,value
2023-01-19T00:01:25.992Z,76.35
2023-01-19T00:03:53.628Z,76.26
2023-01-19T00:06:21.325Z,76.33
2023-01-19T00:08:50.203Z,76.32
2023-01-19T00:11:18.091Z,76.30
2023-01-19T00:13:53.477Z,76.34
2023-01-19T00:16:23.217Z,76.54
2023-01-19T00:18:52.347Z,76.43
2023-01-19T00:21:21.654Z,76.21
2023-01-19T00:23:51.171Z,76.19
2023-01-19T00:26:21.943Z,76.24
2023-01-19T00:28:50.328Z,76.37
2023-01-19T00:31:20.697Z,76.34
2023-01-19T00:33:49.221Z,76.24
2023-01-19T00:36:17.043Z,76.44
2023-01-19T00:38:44.930Z,76.47
2023-01-19T00:41:12.578Z,76.49
2023-01-19T00:43:40.209Z,76.47
2023-01-19T00:46:07.940Z,76.56
2023-01-19T00:48:35.732Z,76.60
2023-01-19T00:51:03.614Z,76.60
2023-01-19T00:53:32.471Z,76.62
2023-01-19T00:56:00.257Z,76.54
2023-01-19T00:58:27.972Z,76.45
2023-01-19T01:00:57.843Z,76.55
2023-01-19T01:03:28.072Z,76.41
2023-01-19T01:05:56.044Z,76.30
2023-01-19T01:08:23.837Z,76.46
2023-01-19T01:10:51.940Z,76.34
2023-01-19T01:13:21.695Z,76.30
2023-01-19T01:15:54.184Z,76.36
2023-01-19T01:18:22.484Z,76.36
2023-01-19T01:20:50.251Z,76.32
2023-01-19T01:23:22.605Z,76.43
2023-01-19T01:25:50.272Z,76.36
2023-01-19T01:28:18.018Z,76.43
2023-01-19T01:30:45.684Z,76.50
2023-01-19T01:33:13.743Z,76.44
2023-01-19T01:35:41.478Z,76.61
2023-01-19T01:38:09.385Z,76.52
2023-01-19T01:40:40.406Z,76.48
2023-01-19T01:43:13.291Z,76.41
2023-01-19T01:45:41.995Z,76.55
2023-01-19T01:48:30.870Z,76.55
2023-01-19T01:51:22.760Z,76.46
2023-01-19T01:54:10.249Z,76.43
2023-01-19T01:56:41.565Z,76.29
2023-01-19T01:59:26.202Z,76.39
2023-01-19T02:02:15.666Z,76.26
2023-01-19T02:05:06.379Z,76.49
2023-01-19T02:08:05.862Z,76.32
2023-01-19T02:10:49.627Z,76.51
2023-01-19T02:13:21.325Z,76.49
2023-01-19T02:15:51.872Z,76.39
2023-01-19T02:18:22.342Z,76.53
2023-01-19T02:21:21.854Z,76.52
2023-01-19T02:24:02.952Z,76.53
2023-01-19T02:26:38.945Z,76.52
2023-01-19T02:29:12.771Z,76.49
2023-01-19T02:31:41.041Z,76.51
2023-01-19T02:34:11.472Z,76.55
2023-01-19T02:36:50.231Z,76.41
2023-01-19T02:39:21.644Z,76.18
2023-01-19T02:41:55.692Z,76.23
2023-01-19T02:44:25.153Z,76.37
2023-01-19T02:46:56.851Z,76.37
2023-01-19T02:49:29.755Z,76.29
2023-01-19T02:51:59.118Z,76.13
2023-01-19T02:54:58.637Z,76.14
2023-01-19T02:57:43.702Z,76.24
2023-01-19T03:00:23.215Z,76.32
2023-01-19T03:03:10.417Z,76.29
2023-01-19T03:05:57.086Z,76.38
2023-01-19T03:08:33.042Z,76.40
2023-01-19T03:11:08.253Z,76.37
2023-01-19T03:14:00.426Z,76.27
2023-01-19T03:16:42.135Z,76.26
2023-01-19T03:19:19.643Z,76.19
2023-01-19T03:21:52.120Z,76.27
2023-01-19T03:24:22.633Z,76.25
2023-01-19T03:26:58.678Z,76.18
2023-01-19T03:29:34.844Z,76.22
2023-01-19T03:32:09.387Z,76.25
2023-01-19T03:34:39.996Z,76.30
2023-01-19T03:37:10.361Z,76.20
2023-01-19T03:39:38.123Z,76.23
2023-01-19T03:42:10.756Z,76.05
2023-01-19T03:44:40.813Z,76.12
2023-01-19T03:47:11.160Z,76.10
2023-01-19T03:49:41.599Z,76.12
2023-01-19T03:52:09.392Z,76.28
2023-01-19T03:54:37.167Z,76.29
2023-01-19T03:57:04.908Z,76.23
2023-01-19T03:59:32.593Z,76.18
2023-01-19T04:02:00.316Z,76.22
2023-01-19T04:04:27.979Z,76.22
2023-01-19T04:06:55.617Z,76.16
2023-01-19T04:09:23.263Z,76.14
2023-01-19T04:11:51.396Z,76.17
2023-01-19T04:14:19.136Z,76.31
2023-01-19T04:16:46.767Z,75.88
2023-01-19T04:19:14.511Z,75.99
2023-01-19T04:21:42.220Z,76.26
2023-01-19T04:24:10.737Z,76.37
2023-01-19T04:26:38.480Z,76.32
2023-01-19T04:29:06.267Z,76.39
2023-01-19T04:31:35.741Z,76.22
2023-01-19T04:34:04.028Z,76.32
2023-01-19T04:36:31.694Z,76.31
2023-01-19T04:38:59.350Z,76.48
2023-01-19T04:41:26.940Z,76.39
2023-01-19T04:43:54.678Z,76.37
2023-01-19T04:46:22.367Z,76.33
2023-01-19T04:48:50.163Z,76.26
2023-01-19T04:51:17.928Z,76.24
2023-01-19T04:53:45.883Z,76.15
2023-01-19T04:56:13.597Z,76.14
2023-01-19T04:58:41.863Z,76.13
2023-01-19T05:01:09.935Z,76.14
2023-01-19T05:03:37.757Z,76.27
2023-01-19T05:06:06.480Z,76.14
2023-01-19T05:08:34.133Z,76.19
2023-01-19T05:11:01.857Z,76.28
2023-01-19T05:13:29.552Z,76.28
2023-01-19T05:15:57.315Z,76.18
2023-01-19T05:18:24.932Z,76.25
2023-01-19T05:20:52.603Z,76.24
2023-01-19T05:23:20.733Z,76.06
2023-01-19T05:25:48.417Z,76.22
2023-01-19T05:28:17.074Z,76.05
2023-01-19T05:30:44.719Z,76.10
2023-01-19T05:33:12.453Z,76.11
2023-01-19T05:35:40.098Z,76.26
2023-01-19T05:38:07.724Z,76.32
2023-01-19T05:40:35.404Z,76.20
2023-01-19T05:43:05.445Z,76.44
2023-01-19T05:45:33.754Z,76.16
2023-01-19T05:48:02.020Z,76.26
2023-01-19T05:50:29.654Z,76.43
2023-01-19T05:52:57.909Z,76.26
2023-01-19T05:55:26.675Z,76.15
2023-01-19T05:57:54.831Z,76.38
2023-01-19T06:00:22.656Z,76.26
2023-01-19T06:02:50.727Z,76.27
2023-01-19T06:05:18.473Z,76.37
2023-01-19T06:07:46.393Z,76.38
2023-01-19T06:10:14.027Z,76.33
2023-01-19T06:12:41.729Z,76.28
2023-01-19T06:15:09.823Z,76.24
2023-01-19T06:17:37.639Z,76.24
2023-01-19T06:20:06.945Z,76.24
2023-01-19T06:22:34.897Z,76.31
2023-01-19T06:25:02.829Z,76.23
2023-01-19T06:27:30.624Z,76.26
2023-01-19T06:29:58.230Z,76.24
2023-01-19T06:32:25.914Z,76.12
2023-01-19T06:34:54.209Z,76.05
2023-01-19T06:37:22.235Z,76.05
2023-01-19T06:39:49.855Z,76.20
2023-01-19T06:42:17.526Z,76.21
2023-01-19T06:44:47.656Z,76.30
2023-01-19T06:47:16.711Z,76.23
2023-01-19T06:49:44.467Z,76.25
2023-01-19T06:52:16.022Z,76.14
2023-01-19T06:54:46.212Z,76.20
2023-01-19T06:57:14.386Z,76.22
2023-01-19T06:59:42.562Z,76.15
2023-01-19T07:02:27.331Z,76.04
2023-01-19T07:04:56.695Z,76.14
2023-01-19T07:07:24.566Z,76.02
2023-01-19T07:09:54.055Z,76.03
2023-01-19T07:12:22.808Z,76.00
2023-01-19T07:14:51.416Z,76.09
2023-01-19T07:17:19.838Z,76.19
2023-01-19T07:19:47.789Z,76.13
2023-01-19T07:22:15.695Z,76.16
2023-01-19T07:24:43.504Z,76.07
2023-01-19T07:27:16.278Z,76.20
2023-01-19T07:29:44.111Z,76.07
2023-01-19T07:32:12.599Z,76.07
2023-01-19T07:34:40.410Z,76.21
2023-01-19T07:37:08.289Z,76.08
2023-01-19T07:39:36.824Z,76.04
2023-01-19T07:42:05.086Z,76.04
2023-01-19T07:44:33.074Z,76.15
2023-01-19T07:47:00.868Z,76.25
2023-01-19T07:49:28.797Z,76.34
2023-01-19T07:51:56.758Z,76.24
2023-01-19T07:54:24.464Z,76.25
2023-01-19T07:56:55.232Z,76.39
2023-01-19T07:59:26.115Z,76.26
2023-01-19T08:01:54.214Z,76.24
2023-01-19T08:04:22.259Z,76.01
2023-01-19T08:06:50.307Z,75.95
2023-01-19T08:09:18.071Z,76.06
2023-01-19T08:11:45.812Z,76.14
2023-01-19T08:14:13.476Z,76.22
2023-01-19T08:16:41.138Z,76.19
2023-01-19T08:19:08.912Z,76.28
2023-01-19T08:21:39.088Z,76.27
2023-01-19T08:24:07.786Z,76.22
2023-01-19T08:26:36.480Z,76.15
2023-01-19T08:29:08.721Z,76.04
2023-01-19T08:31:40.087Z,76.07
2023-01-19T08:34:08.452Z,76.10
2023-01-19T08:36:36.083Z,76.12
2023-01-19T08:39:03.825Z,76.17
2023-01-19T08:41:32.413Z,76.07
2023-01-19T08:44:00.124Z,75.89
2023-01-19T08:46:28.023Z,75.42
2023-01-19T08:48:56.109Z,75.06
2023-01-19T08:51:24.263Z,78.39
2023-01-19T08:53:52.038Z,77.77
2023-01-19T08:56:20.982Z,76.57
2023-01-19T08:58:59.500Z,75.94
2023-01-19T09:01:37.394Z,75.84
2023-01-19T09:04:05.578Z,75.77
2023-01-19T09:06:34.108Z,75.59
2023-01-19T09:09:01.768Z,75.70
2023-01-19T09:11:30.788Z,75.75
2023-01-19T09:13:58.690Z,75.65
2023-01-19T09:16:27.260Z,75.66
2023-01-19T09:18:55.330Z,75.81
2023-01-19T09:21:23.303Z,75.65
2023-01-19T09:23:51.715Z,75.76
2023-01-19T09:26:19.498Z,75.71
2023-01-19T09:28:47.151Z,75.72
2023-01-19T09:31:15.236Z,75.79
2023-01-19T09:33:43.072Z,75.85
2023-01-19T09:36:10.774Z,75.85
2023-01-19T09:38:38.520Z,75.85
2023-01-19T09:41:17.437Z,75.72
2023-01-19T09:43:51.440Z,75.75
2023-01-19T09:46:39.013Z,75.82
2023-01-19T09:49:13.289Z,75.90
2023-01-19T09:51:46.095Z,75.73
2023-01-19T09:54:22.952Z,75.27
2023-01-19T09:56:52.860Z,74.99
2023-01-19T09:59:28.289Z,74.69
2023-01-19T10:02:19.196Z,75.01
2023-01-19T10:05:26.495Z,75.17
2023-01-19T10:08:03.575Z,75.43
2023-01-19T10:10:32.417Z,75.62
2023-01-19T10:13:19.269Z,75.71
2023-01-19T10:16:02.853Z,75.77
2023-01-19T10:18:53.514Z,75.82
2023-01-19T10:21:43.601Z,75.53
2023-01-19T10:24:35.913Z,75.10
2023-01-19T10:27:10.368Z,74.95
2023-01-19T10:29:38.323Z,75.39
2023-01-19T10:32:26.063Z,75.67
2023-01-19T10:34:55.728Z,75.79
2023-01-19T10:37:34.477Z,75.81
2023-01-19T10:40:21.224Z,75.79
2023-01-19T10:42:48.997Z,75.92
2023-01-19T10:45:36.700Z,75.86
2023-01-19T10:48:08.219Z,75.72
2023-01-19T10:50:41.694Z,75.88
2023-01-19T10:53:22.447Z,75.59
2023-01-19T10:56:12.094Z,75.73
2023-01-19T10:58:40.697Z,75.90
2023-01-19T11:01:25.786Z,75.88
2023-01-19T11:03:57.075Z,75.89
2023-01-19T11:06:28.126Z,75.64
2023-01-19T11:09:20.561Z,75.64
2023-01-19T11:11:51.732Z,75.67
2023-01-19T11:14:24.783Z,75.77
2023-01-19T11:16:58.310Z,75.79
2023-01-19T11:19:30.016Z,75.74
2023-01-19T11:22:24.881Z,75.89
2023-01-19T11:24:53.082Z,75.89
2023-01-19T11:27:21.777Z,75.71
2023-01-19T11:29:58.904Z,75.58
2023-01-19T11:32:28.435Z,75.62
2023-01-19T11:34:56.610Z,75.59
2023-01-19T11:37:31.493Z,75.55
2023-01-19T11:40:02.810Z,75.50
2023-01-19T11:42:33.847Z,75.53
2023-01-19T11:45:19.853Z,75.54
2023-01-19T11:47:56.723Z,75.47
2023-01-19T11:50:34.727Z,75.40
2023-01-19T11:53:25.624Z,75.52
2023-01-19T11:56:14.036Z,75.50
2023-01-19T11:58:47.347Z,75.54
2023-01-19T12:01:38.499Z,75.42
2023-01-19T12:04:19.679Z,75.38
2023-01-19T12:06:53.076Z,75.46
2023-01-19T12:09:50.804Z,75.43
2023-01-19T12:12:27.307Z,75.32
2023-01-19T12:14:57.646Z,75.33
2023-01-19T12:17:33.477Z,75.27
2023-01-19T12:20:13.526Z,75.32
2023-01-19T12:22:50.716Z,75.36
2023-01-19T12:25:28.286Z,75.42
2023-01-19T12:27:57.607Z,75.32
2023-01-19T12:30:29.039Z,75.37
2023-01-19T12:33:29.170Z,75.36
2023-01-19T12:36:00.798Z,75.29
2023-01-19T12:39:00.326Z,75.28
2023-01-19T12:41:47.530Z,75.29
2023-01-19T12:44:21.999Z,75.20
2023-01-19T12:47:24.129Z,75.27
2023-01-19T12:49:56.494Z,75.20
2023-01-19T12:52:40.504Z,75.17
2023-01-19T12:55:14.818Z,75.28
2023-01-19T12:58:03.604Z,75.18
2023-01-19T13:00:41.107Z,75.15
2023-01-19T13:03:24.934Z,75.20
2023-01-19T13:05:55.238Z,75.24
2023-01-19T13:08:30.389Z,75.30
2023-01-19T13:11:09.547Z,75.14
2023-01-19T13:14:03.361Z,75.11
2023-01-19T13:16:31.062Z,75.22
2023-01-19T13:19:14.259Z,75.18
2023-01-19T13:21:47.452Z,75.28
2023-01-19T13:24:22.633Z,75.17
2023-01-19T13:26:50.282Z,75.28
2023-01-19T13:29:36.712Z,75.27
2023-01-19T13:32:18.690Z,75.31
2023-01-19T13:34:54.667Z,75.20
2023-01-19T13:37:25.886Z,75.05
2023-01-19T13:39:55.203Z,75.09
2023-01-19T13:42:33.182Z,75.16
2023-01-19T13:45:07.115Z,75.06
2023-01-19T13:47:42.000Z,75.30
2023-01-19T13:50:20.449Z,75.22
2023-01-19T13:52:50.798Z,75.24
2023-01-19T13:55:20.546Z,75.02
2023-01-19T13:57:50.327Z,75.15
2023-01-19T14:00:23.925Z,75.13
2023-01-19T14:03:08.497Z,75.18
2023-01-19T14:05:41.773Z,75.12
2023-01-19T14:08:12.896Z,75.18
2023-01-19T14:10:53.360Z,75.26
2023-01-19T14:13:41.634Z,75.26
2023-01-19T14:16:12.192Z,75.06
2023-01-19T14:18:39.863Z,74.94
2023-01-19T14:21:08.829Z,75.09
2023-01-19T14:23:36.687Z,75.10
2023-01-19T14:26:04.869Z,75.14
2023-01-19T14:28:35.324Z,75.25
2023-01-19T14:31:20.695Z,75.16
2023-01-19T14:33:51.717Z,75.15
2023-01-19T14:36:26.566Z,75.14
2023-01-19T14:38:59.402Z,75.00
2023-01-19T14:41:48.977Z,75.13
2023-01-19T14:44:38.802Z,74.94
2023-01-19T14:47:20.572Z,74.99
2023-01-19T14:49:48.371Z,74.99
2023-01-19T14:52:25.098Z,75.06
2023-01-19T14:54:55.586Z,75.06
2023-01-19T14:57:24.713Z,75.16
2023-01-19T14:59:52.892Z,75.15
2023-01-19T15:02:20.746Z,75.04
2023-01-19T15:04:48.763Z,75.09
2023-01-19T15:07:19.224Z,75.12
2023-01-19T15:09:48.153Z,74.97
2023-01-19T15:12:18.560Z,75.09
2023-01-19T15:14:49.711Z,75.03
2023-01-19T15:17:26.465Z,75.04
2023-01-19T15:19:55.404Z,75.21
2023-01-19T15:22:28.261Z,75.18
2023-01-19T15:24:59.889Z,75.11
2023-01-19T15:27:27.780Z,75.09
2023-01-19T15:29:55.492Z,75.03
2023-01-19T15:32:23.142Z,75.05
2023-01-19T15:34:50.814Z,74.90
2023-01-19T15:37:18.450Z,75.07
2023-01-19T15:39:47.458Z,75.21
2023-01-19T15:42:15.584Z,75.21
2023-01-19T15:44:44.995Z,75.11
2023-01-19T15:47:12.694Z,75.11
2023-01-19T15:49:40.329Z,75.19
2023-01-19T15:52:07.981Z,75.14
2023-01-19T15:54:35.631Z,75.24
2023-01-19T15:57:03.308Z,75.27
2023-01-19T15:59:31.155Z,75.16
2023-01-19T16:01:59.012Z,74.98
2023-01-19T16:04:26.858Z,75.07
2023-01-19T16:06:54.717Z,75.12
2023-01-19T16:09:22.347Z,75.12
2023-01-19T16:11:53.173Z,75.12
2023-01-19T16:14:20.920Z,75.11
2023-01-19T16:16:49.218Z,75.14
2023-01-19T16:19:17.043Z,75.13
2023-01-19T16:21:44.807Z,75.20
2023-01-19T16:24:12.585Z,75.16
2023-01-19T16:26:40.355Z,74.99
2023-01-19T16:29:10.749Z,75.06
2023-01-19T16:31:39.480Z,75.19
2023-01-19T16:34:10.097Z,75.27
2023-01-19T16:36:41.548Z,75.09
2023-01-19T16:39:13.661Z,75.10
2023-01-19T16:41:42.480Z,75.16
2023-01-19T16:44:12.072Z,75.17
2023-01-19T16:46:42.174Z,75.09
2023-01-19T16:49:14.240Z,75.13
2023-01-19T16:51:42.412Z,75.21
2023-01-19T16:54:15.338Z,75.17
2023-01-19T16:56:43.584Z,75.08
2023-01-19T16:59:12.937Z,74.89
2023-01-19T17:01:41.732Z,75.00
2023-01-19T17:04:09.948Z,74.95
2023-01-19T17:06:38.038Z,75.10
2023-01-19T17:09:15.047Z,75.15
2023-01-19T17:11:46.312Z,75.17
2023-01-19T17:15:19.190Z,75.12
2023-01-19T17:18:14.992Z,75.25
2023-01-19T17:20:42.654Z,75.26
2023-01-19T17:23:10.561Z,75.14
2023-01-19T17:25:38.382Z,75.03
2023-01-19T17:28:06.312Z,75.14
2023-01-19T17:30:34.111Z,75.26
2023-01-19T17:33:02.218Z,75.16
2023-01-19T17:35:30.188Z,75.06
2023-01-19T17:37:58.265Z,74.85
2023-01-19T17:40:26.068Z,74.98
2023-01-19T17:42:53.754Z,75.06
2023-01-19T17:45:21.668Z,75.15
2023-01-19T17:47:50.587Z,75.11
2023-01-19T17:50:20.963Z,75.04
2023-01-19T17:52:48.648Z,75.09
2023-01-19T17:55:18.251Z,75.08
2023-01-19T17:57:45.978Z,75.10
2023-01-19T18:00:15.023Z,75.15
2023-01-19T18:02:43.314Z,75.16
2023-01-19T18:05:12.637Z,75.01
2023-01-19T18:07:40.807Z,74.94
2023-01-19T18:10:09.571Z,74.99
2023-01-19T18:12:37.485Z,74.93
2023-01-19T18:15:08.711Z,75.04
2023-01-19T18:17:36.430Z,74.99
2023-01-19T18:20:05.319Z,75.11
2023-01-19T18:22:33.491Z,75.02
2023-01-19T18:25:01.639Z,75.19
2023-01-19T18:27:29.365Z,75.13
2023-01-19T18:29:57.057Z,75.14
2023-01-19T18:32:27.106Z,75.22
2023-01-19T18:34:54.903Z,75.13
2023-01-19T18:37:22.663Z,75.08
2023-01-19T18:39:50.460Z,75.15
2023-01-19T18:42:18.141Z,75.19
2023-01-19T18:44:45.795Z,75.04
2023-01-19T18:47:13.446Z,75.03
2023-01-19T18:49:41.133Z,74.98
2023-01-19T18:52:08.895Z,75.16
2023-01-19T18:54:36.492Z,75.08
2023-01-19T18:57:04.183Z,75.10
2023-01-19T18:59:31.853Z,75.10
2023-01-19T19:02:01.671Z,75.03
2023-01-19T19:04:29.625Z,75.08
2023-01-19T19:06:57.306Z,75.08
2023-01-19T19:09:25.100Z,75.08
2023-01-19T19:11:52.766Z,75.25
2023-01-19T19:14:20.493Z,75.19
2023-01-19T19:16:48.155Z,75.26
2023-01-19T19:19:16.596Z,75.06
2023-01-19T19:21:44.736Z,75.06
2023-01-19T19:24:13.365Z,75.13
2023-01-19T19:26:41.867Z,75.13
2023-01-19T19:29:09.529Z,75.29
2023-01-19T19:31:37.574Z,75.23
2023-01-19T19:34:05.341Z,75.21
2023-01-19T19:36:33.417Z,75.16
2023-01-19T19:39:01.132Z,75.11
2023-01-19T19:41:29.380Z,75.04
2023-01-19T19:43:57.109Z,75.13
2023-01-19T19:46:26.557Z,75.10
2023-01-19T19:48:54.806Z,74.90
2023-01-19T19:51:26.968Z,75.12
2023-01-19T19:53:57.365Z,75.13
2023-01-19T19:56:27.912Z,75.06
2023-01-19T19:58:57.578Z,75.07
2023-01-19T20:01:33.540Z,74.94
2023-01-19T20:04:09.968Z,74.94
2023-01-19T20:06:44.477Z,74.96
2023-01-19T20:09:14.319Z,75.12
2023-01-19T20:11:44.449Z,74.97
2023-01-19T20:14:14.013Z,75.08
2023-01-19T20:16:42.381Z,75.03
2023-01-19T20:19:10.819Z,75.04
2023-01-19T20:21:43.794Z,75.03
2023-01-19T20:24:18.136Z,75.03
2023-01-19T20:26:50.345Z,75.04
2023-01-19T20:29:19.299Z,75.03
2023-01-19T20:31:54.055Z,75.21
2023-01-19T20:34:25.201Z,75.09
2023-01-19T20:36:54.037Z,75.01
2023-01-19T20:39:23.455Z,74.94
2023-01-19T20:41:52.492Z,74.99
2023-01-19T20:44:23.709Z,75.02
2023-01-19T20:46:51.829Z,75.10
2023-01-19T20:49:20.329Z,75.13
2023-01-19T20:51:48.208Z,75.10
2023-01-19T20:54:17.995Z,75.04
2023-01-19T20:56:45.716Z,75.09
2023-01-19T20:59:13.767Z,75.29
2023-01-19T21:01:43.199Z,75.19
2023-01-19T21:04:12.101Z,75.30
2023-01-19T21:06:41.080Z,75.42
2023-01-19T21:09:10.884Z,75.23
2023-01-19T21:11:39.400Z,75.24
2023-01-19T21:14:07.762Z,75.19
2023-01-19T21:16:35.967Z,75.13
2023-01-19T21:19:04.888Z,75.18
2023-01-19T21:21:32.685Z,75.25
2023-01-19T21:24:01.941Z,75.20
2023-01-19T21:26:30.398Z,75.22
2023-01-19T21:28:59.045Z,75.22
2023-01-19T21:31:27.892Z,75.13
2023-01-19T21:33:57.737Z,75.43
2023-01-19T21:36:26.129Z,75.36
2023-01-19T21:39:00.057Z,75.39
2023-01-19T21:41:29.811Z,75.27
2023-01-19T21:44:00.016Z,75.38
2023-01-19T21:46:33.327Z,75.30
2023-01-19T21:49:03.187Z,75.11
2023-01-19T21:51:33.758Z,75.21
2023-01-19T21:54:05.216Z,75.33
2023-01-19T21:56:34.753Z,75.24
2023-01-19T21:59:03.288Z,75.35
2023-01-19T22:01:32.830Z,75.41
2023-01-19T22:04:00.604Z,75.33
2023-01-19T22:06:28.678Z,75.33
2023-01-19T22:08:57.945Z,75.22
2023-01-19T22:11:25.759Z,75.43
2023-01-19T22:13:54.335Z,75.32
2023-01-19T22:16:23.163Z,75.32
2023-01-19T22:18:54.063Z,75.30
2023-01-19T22:21:24.767Z,75.33
2023-01-19T22:23:55.007Z,75.33
2023-01-19T22:26:22.797Z,75.27
2023-01-19T22:28:57.052Z,75.19
2023-01-19T22:31:26.353Z,75.27
2023-01-19T22:33:54.960Z,75.26
2023-01-19T22:36:25.024Z,75.34
2023-01-19T22:39:14.536Z,75.24
2023-01-19T22:41:45.647Z,75.32
2023-01-19T22:44:20.785Z,75.32
2023-01-19T22:46:50.102Z,75.44
2023-01-19T22:49:18.412Z,75.21
2023-01-19T22:51:46.873Z,75.14
2023-01-19T22:54:14.807Z,75.10
2023-01-19T22:56:42.592Z,75.25
2023-01-19T22:59:10.253Z,75.24
2023-01-19T23:01:41.553Z,75.29
2023-01-19T23:04:12.928Z,75.34
2023-01-19T23:06:41.122Z,75.30
2023-01-19T23:09:13.471Z,75.27
2023-01-19T23:11:43.828Z,75.24
2023-01-19T23:14:14.945Z,75.19
2023-01-19T23:16:42.767Z,75.25
2023-01-19T23:19:12.183Z,75.26
2023-01-19T23:21:40.666Z,75.15
2023-01-19T23:24:09.685Z,75.20
2023-01-19T23:26:38.433Z,74.93
2023-01-19T23:29:11.111Z,75.10
2023-01-19T23:31:42.269Z,75.11
2023-01-19T23:34:12.188Z,75.34
2023-01-19T23:36:41.403Z,75.32
2023-01-19T23:39:18.056Z,75.26
2023-01-19T23:41:46.209Z,75.33
2023-01-19T23:44:13.938Z,75.26
2023-01-19T23:46:41.669Z,75.39
2023-01-19T23:49:09.541Z,75.34
2023-01-19T23:51:37.283Z,75.47
2023-01-19T23:54:05.819Z,75.43
2023-01-19T23:56:36.191Z,75.58
2023-01-19T23:59:06.748Z,75.44
